createdAt,value
2022-08-16T00:02:43.182Z,67.36
2022-08-16T00:05:49.174Z,67.38
2022-08-16T00:08:59.964Z,67.14
2022-08-16T00:12:02.905Z,67.44
2022-08-16T00:15:17.157Z,67.56
2022-08-16T00:18:22.359Z,68.16
2022-08-16T00:21:33.160Z,67.89
2022-08-16T00:24:35.741Z,67.72
2022-08-16T00:27:38.041Z,67.72
2022-08-16T00:30:41.702Z,68.07
2022-08-16T00:33:49.961Z,68.35
2022-08-16T00:36:55.968Z,68.39
2022-08-16T00:39:59.173Z,68.93
2022-08-16T00:43:02.583Z,69.00
2022-08-16T00:46:34.005Z,69.58
2022-08-16T00:49:39.052Z,69.38
2022-08-16T00:52:45.788Z,69.21
2022-08-16T00:55:54.990Z,69.61
2022-08-16T00:58:57.364Z,69.66
2022-08-16T01:02:30.679Z,70.24
2022-08-16T01:05:28.640Z,70.12
2022-08-16T01:08:36.219Z,70.48
2022-08-16T01:11:54.125Z,70.93
2022-08-16T01:14:59.381Z,71.14
2022-08-16T01:18:02.992Z,71.77
2022-08-16T01:21:13.032Z,72.63
2022-08-16T01:24:53.277Z,72.77
2022-08-16T01:27:45.682Z,72.71
2022-08-16T01:30:51.854Z,73.58
2022-08-16T01:33:54.790Z,74.16
2022-08-16T01:37:01.381Z,74.29
2022-08-16T01:40:07.063Z,74.70
2022-08-16T01:43:10.718Z,74.24
2022-08-16T01:46:39.238Z,74.17
2022-08-16T01:50:41.128Z,74.63
2022-08-16T01:53:06.547Z,74.54
2022-08-16T01:56:25.006Z,74.45
2022-08-16T01:59:28.861Z,74.69
2022-08-16T02:02:32.247Z,74.65
2022-08-16T02:05:35.235Z,74.73
2022-08-16T02:08:38.441Z,75.03
2022-08-16T02:11:48.246Z,75.17
2022-08-16T02:14:55.351Z,75.20
2022-08-16T02:17:59.310Z,75.92
2022-08-16T02:21:07.495Z,76.16
2022-08-16T02:24:31.630Z,76.02
2022-08-16T02:27:33.718Z,76.22
2022-08-16T02:30:43.459Z,76.13
2022-08-16T02:33:49.091Z,75.37
2022-08-16T02:36:53.714Z,75.41
2022-08-16T02:39:58.419Z,75.35
2022-08-16T02:43:02.816Z,75.18
2022-08-16T02:46:08.047Z,74.73
2022-08-16T02:49:11.000Z,74.61
2022-08-16T02:52:17.397Z,74.01
2022-08-16T02:55:40.639Z,74.21
2022-08-16T02:58:49.310Z,73.93
2022-08-16T03:01:52.527Z,73.38
2022-08-16T03:04:59.278Z,73.49
2022-08-16T03:08:02.011Z,73.36
2022-08-16T03:11:06.632Z,72.99
2022-08-16T03:14:21.342Z,73.45
2022-08-16T03:17:32.305Z,73.35
2022-08-16T03:20:38.353Z,73.44
2022-08-16T03:23:42.420Z,73.66
2022-08-16T03:26:45.902Z,73.89
2022-08-16T03:29:54.923Z,74.45
2022-08-16T03:32:58.381Z,75.35
2022-08-16T03:36:30.176Z,74.83
2022-08-16T03:39:26.238Z,74.40
2022-08-16T03:42:30.120Z,74.74
2022-08-16T03:45:34.123Z,74.83
2022-08-16T03:48:40.400Z,75.08
2022-08-16T03:51:47.205Z,75.80
2022-08-16T03:54:57.361Z,76.15
2022-08-16T03:58:00.973Z,76.04
2022-08-16T04:01:05.083Z,75.66
2022-08-16T04:04:08.251Z,74.91
2022-08-16T04:07:11.315Z,74.93
2022-08-16T04:10:36.897Z,75.16
2022-08-16T04:14:01.129Z,74.35
2022-08-16T04:17:01.676Z,73.32
2022-08-16T04:20:23.766Z,72.96
2022-08-16T04:23:33.065Z,72.89
2022-08-16T04:26:35.485Z,72.45
2022-08-16T04:29:43.756Z,71.68
2022-08-16T04:32:50.058Z,71.73
2022-08-16T04:35:54.316Z,71.60
2022-08-16T04:38:59.329Z,71.66
2022-08-16T04:42:10.917Z,71.87
2022-08-16T04:45:14.531Z,71.73
2022-08-16T04:48:22.062Z,71.16
2022-08-16T04:51:36.228Z,70.69
2022-08-16T04:54:40.636Z,70.35
2022-08-16T04:57:46.354Z,69.05
2022-08-16T05:00:58.793Z,68.07
2022-08-16T05:04:01.862Z,66.82
2022-08-16T05:07:05.023Z,66.48
2022-08-16T05:10:19.481Z,65.93
2022-08-16T05:13:40.311Z,65.17
2022-08-16T05:16:45.680Z,64.44
2022-08-16T05:19:57.553Z,64.42
2022-08-16T05:23:01.429Z,63.56
2022-08-16T05:26:04.582Z,62.99
2022-08-16T05:29:10.788Z,63.12
2022-08-16T05:32:32.257Z,63.91
2022-08-16T05:35:38.038Z,63.31
2022-08-16T05:38:41.564Z,62.57
2022-08-16T05:41:45.314Z,61.90
2022-08-16T05:44:49.305Z,61.64
2022-08-16T05:47:59.778Z,60.40
2022-08-16T05:51:09.975Z,60.75
2022-08-16T05:54:25.632Z,59.96
2022-08-16T05:57:34.477Z,58.36
2022-08-16T06:00:38.211Z,56.79
2022-08-16T06:03:41.272Z,55.79
2022-08-16T06:06:56.204Z,54.68
2022-08-16T06:10:00.379Z,52.34
2022-08-16T06:13:04.344Z,50.04
2022-08-16T06:16:07.292Z,49.93
2022-08-16T06:19:12.907Z,48.65
2022-08-16T06:22:19.437Z,47.76
2022-08-16T06:25:39.659Z,48.04
2022-08-16T06:28:42.890Z,48.00
2022-08-16T06:31:49.183Z,46.35
2022-08-16T06:34:57.267Z,44.98
2022-08-16T06:38:06.104Z,44.39
2022-08-16T06:41:29.045Z,42.61
2022-08-16T06:44:43.373Z,39.78
2022-08-16T06:47:53.656Z,36.46
2022-08-16T06:50:58.237Z,30.64
2022-08-16T06:54:01.614Z,30.49
2022-08-16T06:57:06.102Z,31.18
2022-08-16T07:00:24.468Z,26.02
2022-08-16T07:03:32.442Z,24.70
2022-08-16T07:06:51.334Z,26.73
2022-08-16T07:09:55.056Z,31.82
2022-08-16T07:13:04.409Z,35.84
2022-08-16T07:16:16.589Z,38.69
2022-08-16T07:20:01.459Z,41.31
2022-08-16T07:22:58.617Z,42.08
2022-08-16T07:26:02.467Z,42.18
2022-08-16T07:29:04.997Z,42.59
2022-08-16T07:32:10.074Z,43.13
2022-08-16T07:35:12.653Z,43.65
2022-08-16T07:38:19.717Z,42.60
2022-08-16T07:41:23.749Z,42.19
2022-08-16T07:44:27.477Z,41.27
2022-08-16T07:47:51.325Z,31.78
2022-08-16T07:50:59.243Z,30.61
2022-08-16T07:54:09.360Z,34.28
2022-08-16T07:57:16.167Z,37.27
2022-08-16T08:00:26.329Z,38.65
2022-08-16T08:03:36.200Z,39.59
2022-08-16T08:06:41.703Z,39.67
2022-08-16T08:09:46.222Z,39.66
2022-08-16T08:12:49.822Z,39.14
2022-08-16T08:15:53.460Z,39.70
2022-08-16T08:19:01.236Z,39.63
2022-08-16T08:22:06.427Z,40.70
2022-08-16T08:25:09.145Z,40.16
2022-08-16T08:28:17.001Z,39.72
2022-08-16T08:31:20.198Z,38.45
2022-08-16T08:34:23.780Z,34.67
2022-08-16T08:37:27.038Z,27.54
2022-08-16T08:40:56.576Z,23.38
2022-08-16T08:43:59.360Z,19.98
2022-08-16T08:47:09.282Z,19.08
2022-08-16T08:50:31.973Z,21.67
2022-08-16T08:53:36.178Z,23.92
2022-08-16T08:56:45.525Z,25.22
2022-08-16T08:59:52.800Z,26.48
2022-08-16T09:02:56.418Z,25.63
2022-08-16T09:06:00.524Z,27.32
2022-08-16T09:09:05.399Z,29.50
2022-08-16T09:12:08.970Z,30.11
2022-08-16T09:15:33.626Z,29.27
2022-08-16T09:18:36.600Z,29.79
2022-08-16T09:21:40.613Z,30.98
2022-08-16T09:24:52.701Z,32.17
2022-08-16T09:28:02.281Z,31.01
2022-08-16T09:31:14.670Z,29.70
2022-08-16T09:34:19.579Z,29.38
2022-08-16T09:37:29.891Z,30.66
2022-08-16T09:40:42.930Z,30.88
2022-08-16T09:44:00.211Z,31.05
2022-08-16T09:47:03.934Z,31.07
2022-08-16T09:50:14.147Z,29.89
2022-08-16T09:53:26.676Z,28.92
2022-08-16T09:56:31.618Z,29.45
2022-08-16T09:59:38.759Z,28.03
2022-08-16T10:02:48.227Z,27.27
2022-08-16T10:05:51.584Z,28.29
2022-08-16T10:09:04.353Z,28.13
2022-08-16T10:12:28.190Z,27.37
2022-08-16T10:15:30.914Z,28.16
2022-08-16T10:18:56.286Z,27.76
2022-08-16T10:21:59.289Z,27.34
2022-08-16T10:25:01.830Z,27.57
2022-08-16T10:28:28.333Z,27.24
2022-08-16T10:31:44.397Z,26.43
2022-08-16T10:34:51.382Z,24.98
2022-08-16T10:37:55.272Z,25.49
2022-08-16T10:40:59.345Z,25.07
2022-08-16T10:44:03.197Z,25.10
2022-08-16T10:47:05.907Z,25.24
2022-08-16T10:50:19.598Z,24.41
2022-08-16T10:53:22.952Z,23.75
2022-08-16T10:56:44.286Z,23.38
2022-08-16T10:59:53.220Z,23.51
2022-08-16T11:03:02.431Z,23.15
2022-08-16T11:06:12.302Z,22.58
2022-08-16T11:09:25.579Z,21.54
2022-08-16T11:12:31.330Z,21.32
2022-08-16T11:15:35.203Z,21.21
2022-08-16T11:19:04.618Z,21.39
2022-08-16T11:22:23.402Z,23.71
2022-08-16T11:32:13.234Z,30.61
2022-08-16T11:38:57.679Z,31.40
2022-08-16T11:42:01.122Z,31.53
2022-08-16T11:45:04.963Z,29.38
2022-08-16T11:48:09.479Z,27.83
2022-08-16T11:51:12.830Z,27.79
2022-08-16T11:54:20.493Z,28.69
2022-08-16T11:57:24.184Z,28.89
2022-08-16T12:00:43.532Z,29.34
2022-08-16T12:03:52.338Z,30.06
2022-08-16T12:06:54.979Z,30.75
2022-08-16T12:09:57.814Z,32.04
2022-08-16T12:13:02.759Z,31.62
2022-08-16T12:16:08.175Z,30.84
2022-08-16T12:19:13.837Z,29.98
2022-08-16T12:22:18.933Z,30.42
2022-08-16T12:25:23.559Z,29.78
2022-08-16T12:28:36.960Z,30.09
2022-08-16T12:32:00.852Z,30.24
2022-08-16T12:35:15.704Z,29.71
2022-08-16T12:38:41.072Z,29.60
2022-08-16T12:41:45.761Z,29.06
2022-08-16T12:44:50.189Z,29.02
2022-08-16T12:48:33.276Z,28.16
2022-08-16T12:51:58.634Z,28.45
2022-08-16T12:55:00.566Z,29.08
2022-08-16T12:58:02.903Z,29.65
2022-08-16T13:01:22.366Z,29.54
2022-08-16T13:04:25.968Z,30.54
2022-08-16T13:07:29.311Z,30.93
2022-08-16T13:10:47.637Z,32.12
2022-08-16T13:13:54.764Z,33.74
2022-08-16T13:16:57.514Z,33.81
2022-08-16T13:20:10.984Z,33.92
2022-08-16T13:23:17.023Z,34.70
2022-08-16T13:26:19.879Z,34.53
2022-08-16T13:29:22.649Z,34.93
2022-08-16T13:32:39.916Z,34.73
2022-08-16T13:35:44.956Z,33.57
2022-08-16T13:38:49.347Z,32.85
2022-08-16T13:41:53.935Z,33.16
2022-08-16T13:44:58.554Z,33.78
2022-08-16T13:48:02.217Z,34.51
2022-08-16T13:51:06.851Z,35.43
2022-08-16T13:54:09.424Z,35.58
2022-08-16T13:57:12.496Z,37.07
2022-08-16T14:00:20.940Z,36.06
2022-08-16T14:03:25.727Z,37.23
2022-08-16T14:06:28.593Z,37.07
2022-08-16T14:09:33.723Z,35.80
2022-08-16T14:12:37.244Z,35.84
2022-08-16T14:15:41.895Z,35.85
2022-08-16T14:18:44.408Z,35.56
2022-08-16T14:21:56.521Z,35.33
2022-08-16T14:25:11.730Z,33.89
2022-08-16T14:28:20.178Z,31.60
2022-08-16T14:31:27.735Z,31.66
2022-08-16T14:34:30.444Z,31.71
2022-08-16T14:37:33.356Z,31.78
2022-08-16T14:40:37.861Z,32.59
2022-08-16T14:43:40.752Z,33.33
2022-08-16T14:46:43.351Z,32.92
2022-08-16T14:49:46.313Z,35.06
2022-08-16T14:52:56.722Z,35.31
2022-08-16T14:55:59.788Z,36.47
2022-08-16T14:59:02.518Z,33.64
2022-08-16T15:02:10.704Z,34.94
2022-08-16T15:05:21.299Z,34.60
2022-08-16T15:08:36.849Z,33.57
2022-08-16T15:11:45.156Z,33.20
2022-08-16T15:14:49.626Z,32.43
2022-08-16T15:17:56.147Z,33.92
2022-08-16T15:21:02.426Z,35.82
2022-08-16T15:24:05.537Z,35.59
2022-08-16T15:27:08.142Z,35.17
2022-08-16T15:30:47.883Z,34.55
2022-08-16T15:33:48.637Z,34.29
2022-08-16T15:36:53.520Z,33.91
2022-08-16T15:39:59.648Z,33.08
2022-08-16T15:43:03.892Z,33.47
2022-08-16T15:46:35.626Z,33.64
2022-08-16T15:49:54.642Z,32.99
2022-08-16T15:53:00.976Z,32.85
2022-08-16T15:56:05.388Z,31.78
2022-08-16T15:59:08.663Z,32.60
2022-08-16T16:02:12.460Z,33.04
2022-08-16T16:05:19.613Z,33.75
2022-08-16T16:08:26.925Z,32.78
2022-08-16T16:11:31.107Z,33.13
2022-08-16T16:14:33.807Z,33.20
2022-08-16T16:17:36.574Z,32.88
2022-08-16T16:20:47.587Z,33.47
2022-08-16T16:23:54.822Z,34.34
2022-08-16T16:27:00.664Z,34.30
2022-08-16T16:30:32.520Z,34.76
2022-08-16T16:33:28.292Z,34.88
2022-08-16T16:36:33.331Z,34.48
2022-08-16T16:39:36.547Z,34.08
2022-08-16T16:42:44.385Z,33.77
2022-08-16T16:45:46.967Z,33.36
2022-08-16T16:48:51.509Z,33.96
2022-08-16T16:51:54.663Z,34.60
2022-08-16T16:55:10.181Z,34.42
2022-08-16T16:58:36.412Z,34.75
2022-08-16T17:01:57.462Z,34.74
2022-08-16T17:05:06.249Z,37.69
2022-08-16T17:08:11.380Z,39.26
2022-08-16T17:11:15.480Z,40.10
2022-08-16T17:14:32.792Z,41.22
2022-08-16T17:18:00.015Z,42.01
2022-08-16T17:20:59.679Z,42.32
2022-08-16T17:24:02.424Z,43.18
2022-08-16T17:27:33.248Z,43.99
2022-08-16T17:30:45.218Z,44.33
2022-08-16T17:33:54.452Z,45.26
2022-08-16T17:36:58.885Z,45.45
2022-08-16T17:40:19.123Z,45.81
2022-08-16T17:43:34.831Z,46.97
2022-08-16T17:46:41.748Z,46.58
2022-08-16T17:49:55.101Z,46.01
2022-08-16T17:52:57.767Z,46.06
2022-08-16T17:56:00.592Z,46.35
2022-08-16T17:59:03.252Z,46.11
2022-08-16T18:02:42.084Z,46.43
2022-08-16T18:05:29.653Z,46.93
2022-08-16T18:08:32.387Z,47.57
2022-08-16T18:11:40.795Z,47.81
2022-08-16T18:14:51.180Z,47.85
2022-08-16T18:17:55.166Z,47.84
2022-08-16T18:21:17.139Z,47.59
2022-08-16T18:24:20.091Z,47.07
2022-08-16T18:27:26.801Z,46.33
2022-08-16T18:30:31.686Z,46.73
2022-08-16T18:33:37.622Z,46.63
2022-08-16T18:36:46.908Z,47.36
2022-08-16T18:39:49.355Z,47.73
2022-08-16T18:43:02.985Z,48.24
2022-08-16T18:46:05.357Z,48.72
2022-08-16T18:49:08.184Z,49.16
2022-08-16T18:52:14.010Z,49.34
2022-08-16T18:55:29.982Z,49.94
2022-08-16T18:58:36.057Z,50.38
2022-08-16T19:01:39.271Z,51.03
2022-08-16T19:04:56.754Z,51.72
2022-08-16T19:08:02.247Z,51.67
2022-08-16T19:11:06.698Z,52.49
2022-08-16T19:14:11.740Z,52.60
2022-08-16T19:17:14.067Z,52.86
2022-08-16T19:20:23.091Z,53.47
2022-08-16T19:23:26.691Z,53.93
2022-08-16T19:26:29.372Z,54.54
2022-08-16T19:29:32.400Z,55.02
2022-08-16T19:32:37.668Z,55.79
2022-08-16T19:35:40.197Z,56.18
2022-08-16T19:38:42.821Z,56.62
2022-08-16T19:41:52.971Z,57.30
2022-08-16T19:44:58.241Z,57.75
2022-08-16T19:48:03.634Z,57.76
2022-08-16T19:51:07.106Z,57.91
2022-08-16T19:54:09.401Z,59.19
2022-08-16T19:57:12.450Z,59.44
2022-08-16T20:00:17.268Z,59.28
2022-08-16T20:03:21.298Z,60.14
2022-08-16T20:06:37.831Z,59.55
2022-08-16T20:09:42.226Z,59.82
2022-08-16T20:12:59.788Z,60.52
2022-08-16T20:16:05.374Z,61.29
2022-08-16T20:19:07.793Z,62.63
2022-08-16T20:22:35.640Z,63.48
2022-08-16T20:25:41.273Z,63.92
2022-08-16T20:28:54.637Z,64.85
2022-08-16T20:31:57.758Z,65.48
2022-08-16T20:35:01.426Z,65.71
2022-08-16T20:38:04.320Z,66.09
2022-08-16T20:41:06.981Z,66.05
2022-08-16T20:44:12.314Z,66.84
2022-08-16T20:47:15.076Z,67.33
2022-08-16T20:50:18.044Z,67.51
2022-08-16T20:53:20.654Z,68.15
2022-08-16T20:56:22.973Z,69.61
2022-08-16T20:59:25.655Z,70.28
2022-08-16T21:02:27.996Z,70.95
2022-08-16T21:05:31.853Z,71.36
2022-08-16T21:08:51.591Z,72.33
2022-08-16T21:11:57.032Z,73.35
2022-08-16T21:15:03.977Z,74.96
2022-08-16T21:18:06.706Z,75.31
2022-08-16T21:21:09.237Z,76.64
2022-08-16T21:24:13.317Z,77.34
2022-08-16T21:27:17.391Z,78.19
2022-08-16T21:30:25.085Z,78.50
2022-08-16T21:33:33.432Z,79.35
2022-08-16T21:36:36.589Z,79.53
2022-08-16T21:39:39.408Z,79.45
2022-08-16T21:42:42.921Z,79.32
2022-08-16T21:45:45.281Z,79.46
2022-08-16T21:48:47.951Z,79.67
2022-08-16T21:51:51.522Z,79.16
2022-08-16T21:54:56.309Z,79.45
2022-08-16T21:57:59.213Z,79.59
2022-08-16T22:01:02.795Z,80.13
2022-08-16T22:04:36.639Z,80.57
2022-08-16T22:07:27.778Z,80.70
2022-08-16T22:11:07.443Z,80.70
2022-08-16T22:13:58.755Z,81.05
2022-08-16T22:17:02.213Z,81.94
2022-08-16T22:20:08.455Z,82.37
2022-08-16T22:23:16.436Z,82.05
2022-08-16T22:26:18.821Z,82.06
2022-08-16T22:29:33.303Z,81.68
2022-08-16T22:32:39.688Z,82.19
2022-08-16T22:35:48.483Z,81.81
2022-08-16T22:38:56.380Z,81.87
2022-08-16T22:42:05.843Z,81.89
2022-08-16T22:45:09.148Z,82.73
2022-08-16T22:48:12.543Z,82.80
2022-08-16T22:51:16.728Z,83.15
2022-08-16T22:54:44.319Z,83.26
2022-08-16T22:57:42.106Z,83.00
2022-08-16T23:00:45.713Z,83.81
2022-08-16T23:03:48.243Z,84.36
2022-08-16T23:06:51.075Z,84.20
2022-08-16T23:09:54.682Z,85.16
2022-08-16T23:12:59.494Z,85.26
2022-08-16T23:16:11.395Z,86.09
2022-08-16T23:19:16.532Z,85.68
2022-08-16T23:22:19.044Z,85.79
2022-08-16T23:25:29.467Z,86.50
2022-08-16T23:28:31.965Z,86.73
2022-08-16T23:31:35.032Z,87.26
2022-08-16T23:34:37.472Z,87.79
2022-08-16T23:37:40.900Z,88.39
2022-08-16T23:40:45.691Z,89.63
2022-08-16T23:43:48.266Z,91.87
2022-08-16T23:46:50.569Z,92.27
2022-08-16T23:50:00.685Z,93.86
2022-08-16T23:53:08.158Z,94.34
2022-08-16T23:56:15.529Z,95.42
2022-08-16T23:59:17.784Z,95.44
